sensor_id;sensor_type;location;lat;lon;timestamp;pressure;altitude;pressure_sealevel;temperature;humidity
74403;BME280;62837;51.082;13.744;2022-10-14T00:00:22;100482.40;;;12.51;71.29
74403;BME280;62837;51.082;13.744;2022-10-14T00:02:53;100480.73;;;12.46;71.12
74403;BME280;62837;51.082;13.744;2022-10-14T00:05:23;100482.54;;;12.34;71.09
74403;BME280;62837;51.082;13.744;2022-10-14T00:07:54;100477.17;;;12.17;71.24
74403;BME280;62837;51.082;13.744;2022-10-14T00:10:25;100477.23;;;12.01;71.59
74403;BME280;62837;51.082;13.744;2022-10-14T00:12:56;100478.54;;;11.88;71.86
74403;BME280;62837;51.082;13.744;2022-10-14T00:15:28;100478.98;;;11.81;72.37
74403;BME280;62837;51.082;13.744;2022-10-14T00:17:58;100483.14;;;11.76;72.38
74403;BME280;62837;51.082;13.744;2022-10-14T00:20:29;100479.05;;;11.74;72.40
74403;BME280;62837;51.082;13.744;2022-10-14T00:23:00;100479.52;;;11.78;72.47
74403;BME280;62837;51.082;13.744;2022-10-14T00:25:35;100481.83;;;11.78;72.33
74403;BME280;62837;51.082;13.744;2022-10-14T00:28:06;100482.57;;;11.83;72.47
74403;BME280;62837;51.082;13.744;2022-10-14T00:30:37;100480.27;;;11.89;71.85
74403;BME280;62837;51.082;13.744;2022-10-14T00:33:07;100476.51;;;11.90;72.24
74403;BME280;62837;51.082;13.744;2022-10-14T00:35:38;100474.29;;;11.96;72.18
74403;BME280;62837;51.082;13.744;2022-10-14T00:38:09;100475.14;;;12.02;72.35
74403;BME280;62837;51.082;13.744;2022-10-14T00:40:39;100471.21;;;12.06;72.35
74403;BME280;62837;51.082;13.744;2022-10-14T00:43:12;100473.42;;;12.17;72.22
74403;BME280;62837;51.082;13.744;2022-10-14T00:45:44;100471.95;;;12.21;72.02
74403;BME280;62837;51.082;13.744;2022-10-14T00:48:15;100475.23;;;12.27;72.15
74403;BME280;62837;51.082;13.744;2022-10-14T00:50:51;100477.93;;;12.36;72.02
74403;BME280;62837;51.082;13.744;2022-10-14T00:53:23;100476.98;;;12.46;71.82
74403;BME280;62837;51.082;13.744;2022-10-14T00:55:54;100476.95;;;12.53;71.62
74403;BME280;62837;51.082;13.744;2022-10-14T00:58:25;100470.13;;;12.58;71.34
74403;BME280;62837;51.082;13.744;2022-10-14T01:00:56;100473.64;;;12.52;71.01
74403;BME280;62837;51.082;13.744;2022-10-14T01:03:26;100472.65;;;12.39;71.25
74403;BME280;62837;51.082;13.744;2022-10-14T01:06:03;100471.04;;;12.28;71.61
74403;BME280;62837;51.082;13.744;2022-10-14T01:08:41;100467.56;;;12.25;72.17
74403;BME280;62837;51.082;13.744;2022-10-14T01:11:19;100467.88;;;12.32;72.35
74403;BME280;62837;51.082;13.744;2022-10-14T01:14:01;100467.93;;;12.44;72.14
74403;BME280;62837;51.082;13.744;2022-10-14T01:16:37;100466.26;;;12.54;72.05
74403;BME280;62837;51.082;13.744;2022-10-14T01:19:27;100469.10;;;12.63;71.88
74403;BME280;62837;51.082;13.744;2022-10-14T01:22:09;100463.71;;;12.69;71.69
74403;BME280;62837;51.082;13.744;2022-10-14T01:24:59;100466.03;;;12.69;71.59
74403;BME280;62837;51.082;13.744;2022-10-14T01:27:51;100463.94;;;12.68;71.71
74403;BME280;62837;51.082;13.744;2022-10-14T01:30:30;100468.25;;;12.69;71.50
74403;BME280;62837;51.082;13.744;2022-10-14T01:33:10;100464.88;;;12.72;71.58
74403;BME280;62837;51.082;13.744;2022-10-14T01:35:54;100466.17;;;12.78;71.51
74403;BME280;62837;51.082;13.744;2022-10-14T01:38:28;100469.60;;;12.83;71.55
74403;BME280;62837;51.082;13.744;2022-10-14T01:41:07;100463.66;;;12.87;71.43
74403;BME280;62837;51.082;13.744;2022-10-14T01:43:41;100467.36;;;12.90;71.31
74403;BME280;62837;51.082;13.744;2022-10-14T01:46:14;100464.28;;;12.93;71.25
74403;BME280;62837;51.082;13.744;2022-10-14T01:48:50;100458.94;;;12.94;71.32
74403;BME280;62837;51.082;13.744;2022-10-14T01:51:26;100459.80;;;12.89;71.17
74403;BME280;62837;51.082;13.744;2022-10-14T01:54:03;100454.85;;;12.80;71.35
74403;BME280;62837;51.082;13.744;2022-10-14T01:56:36;100446.89;;;12.72;71.51
74403;BME280;62837;51.082;13.744;2022-10-14T01:59:11;100449.64;;;12.66;71.68
74403;BME280;62837;51.082;13.744;2022-10-14T02:01:43;100449.30;;;12.64;71.96
74403;BME280;62837;51.082;13.744;2022-10-14T02:04:19;100448.36;;;12.62;72.08
74403;BME280;62837;51.082;13.744;2022-10-14T02:06:57;100444.96;;;12.53;72.32
74403;BME280;62837;51.082;13.744;2022-10-14T02:09:37;100437.58;;;12.42;72.69
74403;BME280;62837;51.082;13.744;2022-10-14T02:12:22;100438.60;;;12.37;72.95
74403;BME280;62837;51.082;13.744;2022-10-14T02:15:03;100435.40;;;12.32;73.13
74403;BME280;62837;51.082;13.744;2022-10-14T02:17:46;100437.61;;;12.35;73.30
74403;BME280;62837;51.082;13.744;2022-10-14T02:20:23;100437.45;;;12.38;73.37
74403;BME280;62837;51.082;13.744;2022-10-14T02:22:59;100434.38;;;12.39;73.32
74403;BME280;62837;51.082;13.744;2022-10-14T02:25:34;100434.70;;;12.40;73.34
74403;BME280;62837;51.082;13.744;2022-10-14T02:28:08;100434.07;;;12.45;73.36
74403;BME280;62837;51.082;13.744;2022-10-14T02:30:42;100430.98;;;12.49;73.32
74403;BME280;62837;51.082;13.744;2022-10-14T02:33:20;100434.81;;;12.56;73.35
74403;BME280;62837;51.082;13.744;2022-10-14T02:35:53;100433.29;;;12.61;72.95
74403;BME280;62837;51.082;13.744;2022-10-14T02:38:26;100432.09;;;12.67;72.89
74403;BME280;62837;51.082;13.744;2022-10-14T02:40:56;100426.70;;;12.72;72.81
74403;BME280;62837;51.082;13.744;2022-10-14T02:43:30;100421.52;;;12.77;72.83
74403;BME280;62837;51.082;13.744;2022-10-14T02:46:03;100414.14;;;12.80;72.79
74403;BME280;62837;51.082;13.744;2022-10-14T02:48:34;100410.16;;;12.83;72.48
74403;BME280;62837;51.082;13.744;2022-10-14T02:51:05;100414.95;;;12.73;72.45
74403;BME280;62837;51.082;13.744;2022-10-14T02:53:38;100416.16;;;12.56;72.86
74403;BME280;62837;51.082;13.744;2022-10-14T02:56:09;100417.71;;;12.40;73.25
74403;BME280;62837;51.082;13.744;2022-10-14T02:58:40;100419.36;;;12.39;73.44
74403;BME280;62837;51.082;13.744;2022-10-14T03:01:11;100419.23;;;12.44;73.49
74403;BME280;62837;51.082;13.744;2022-10-14T03:03:41;100419.87;;;12.42;73.56
74403;BME280;62837;51.082;13.744;2022-10-14T03:06:12;100421.05;;;12.46;73.68
74403;BME280;62837;51.082;13.744;2022-10-14T03:08:43;100422.94;;;12.50;73.57
74403;BME280;62837;51.082;13.744;2022-10-14T03:11:15;100418.03;;;12.49;73.51
74403;BME280;62837;51.082;13.744;2022-10-14T03:13:46;100414.48;;;12.44;73.67
74403;BME280;62837;51.082;13.744;2022-10-14T03:16:16;100414.66;;;12.37;73.84
74403;BME280;62837;51.082;13.744;2022-10-14T03:18:47;100414.13;;;12.39;73.90
74403;BME280;62837;51.082;13.744;2022-10-14T03:21:25;100412.71;;;12.46;74.03
74403;BME280;62837;51.082;13.744;2022-10-14T03:23:56;100410.30;;;12.47;73.83
74403;BME280;62837;51.082;13.744;2022-10-14T03:26:32;100405.39;;;12.47;73.92
74403;BME280;62837;51.082;13.744;2022-10-14T03:29:03;100411.42;;;12.55;73.93
74403;BME280;62837;51.082;13.744;2022-10-14T03:31:52;100410.66;;;12.55;74.02
74403;BME280;62837;51.082;13.744;2022-10-14T03:34:27;100411.10;;;12.58;73.93
74403;BME280;62837;51.082;13.744;2022-10-14T03:37:06;100409.39;;;12.58;73.95
74403;BME280;62837;51.082;13.744;2022-10-14T03:39:42;100410.93;;;12.59;74.05
74403;BME280;62837;51.082;13.744;2022-10-14T03:42:14;100402.73;;;12.64;73.91
74403;BME280;62837;51.082;13.744;2022-10-14T03:44:47;100404.73;;;12.68;73.85
74403;BME280;62837;51.082;13.744;2022-10-14T03:47:32;100400.50;;;12.73;73.83
74403;BME280;62837;51.082;13.744;2022-10-14T03:50:03;100397.90;;;12.79;73.75
74403;BME280;62837;51.082;13.744;2022-10-14T03:52:44;100398.13;;;12.80;73.63
74403;BME280;62837;51.082;13.744;2022-10-14T03:55:24;100394.15;;;12.81;73.67
74403;BME280;62837;51.082;13.744;2022-10-14T03:57:55;100392.55;;;12.83;73.69
74403;BME280;62837;51.082;13.744;2022-10-14T04:00:25;100391.39;;;12.82;73.57
74403;BME280;62837;51.082;13.744;2022-10-14T04:03:05;100391.80;;;12.87;73.59
74403;BME280;62837;51.082;13.744;2022-10-14T04:05:39;100389.52;;;12.92;73.50
74403;BME280;62837;51.082;13.744;2022-10-14T04:08:17;100389.92;;;12.92;73.49
74403;BME280;62837;51.082;13.744;2022-10-14T04:10:54;100387.27;;;12.91;73.40
74403;BME280;62837;51.082;13.744;2022-10-14T04:13:24;100386.48;;;12.88;73.61
74403;BME280;62837;51.082;13.744;2022-10-14T04:15:55;100383.69;;;12.89;73.55
74403;BME280;62837;51.082;13.744;2022-10-14T04:18:36;100381.92;;;12.90;73.57
74403;BME280;62837;51.082;13.744;2022-10-14T04:21:11;100378.93;;;12.88;73.59
74403;BME280;62837;51.082;13.744;2022-10-14T04:23:43;100374.90;;;12.89;73.54
74403;BME280;62837;51.082;13.744;2022-10-14T04:26:17;100372.92;;;12.95;73.60
74403;BME280;62837;51.082;13.744;2022-10-14T04:28:48;100371.27;;;12.97;73.55
74403;BME280;62837;51.082;13.744;2022-10-14T04:31:30;100372.04;;;13.04;73.90
74403;BME280;62837;51.082;13.744;2022-10-14T04:34:03;100374.11;;;13.17;73.52
74403;BME280;62837;51.082;13.744;2022-10-14T04:36:38;100373.17;;;13.28;73.22
74403;BME280;62837;51.082;13.744;2022-10-14T04:39:21;100378.08;;;13.31;72.85
74403;BME280;62837;51.082;13.744;2022-10-14T04:41:52;100378.52;;;13.31;72.80
74403;BME280;62837;51.082;13.744;2022-10-14T04:44:23;100374.77;;;13.37;72.67
74403;BME280;62837;51.082;13.744;2022-10-14T04:46:55;100376.36;;;13.41;72.45
74403;BME280;62837;51.082;13.744;2022-10-14T04:49:26;100377.92;;;13.44;72.44
74403;BME280;62837;51.082;13.744;2022-10-14T04:52:17;100372.06;;;13.44;72.21
74403;BME280;62837;51.082;13.744;2022-10-14T04:54:54;100372.48;;;13.46;72.11
74403;BME280;62837;51.082;13.744;2022-10-14T04:57:34;100371.98;;;13.46;72.04
74403;BME280;62837;51.082;13.744;2022-10-14T05:00:10;100365.81;;;13.45;72.02
74403;BME280;62837;51.082;13.744;2022-10-14T05:02:44;100369.73;;;13.45;71.90
74403;BME280;62837;51.082;13.744;2022-10-14T05:05:15;100365.73;;;13.46;71.74
74403;BME280;62837;51.082;13.744;2022-10-14T05:07:48;100363.15;;;13.48;71.74
74403;BME280;62837;51.082;13.744;2022-10-14T05:10:25;100360.16;;;13.51;71.88
74403;BME280;62837;51.082;13.744;2022-10-14T05:12:56;100357.40;;;13.52;71.75
74403;BME280;62837;51.082;13.744;2022-10-14T05:15:29;100354.47;;;13.54;71.69
74403;BME280;62837;51.082;13.744;2022-10-14T05:18:06;100357.77;;;13.56;71.65
74403;BME280;62837;51.082;13.744;2022-10-14T05:20:57;100353.90;;;13.57;71.66
74403;BME280;62837;51.082;13.744;2022-10-14T05:23:38;100357.89;;;13.55;71.66
74403;BME280;62837;51.082;13.744;2022-10-14T05:26:09;100356.02;;;13.55;71.65
74403;BME280;62837;51.082;13.744;2022-10-14T05:28:41;100354.73;;;13.56;71.77
74403;BME280;62837;51.082;13.744;2022-10-14T05:31:12;100357.67;;;13.57;71.86
74403;BME280;62837;51.082;13.744;2022-10-14T05:33:51;100357.05;;;13.65;72.09
74403;BME280;62837;51.082;13.744;2022-10-14T05:36:22;100361.31;;;13.78;71.85
74403;BME280;62837;51.082;13.744;2022-10-14T05:38:54;100358.02;;;13.88;71.39
74403;BME280;62837;51.082;13.744;2022-10-14T05:41:28;100356.48;;;13.87;71.02
74403;BME280;62837;51.082;13.744;2022-10-14T05:44:00;100356.41;;;13.76;70.96
74403;BME280;62837;51.082;13.744;2022-10-14T05:46:31;100355.17;;;13.61;71.02
74403;BME280;62837;51.082;13.744;2022-10-14T05:49:02;100355.48;;;13.47;71.42
74403;BME280;62837;51.082;13.744;2022-10-14T05:51:36;100358.64;;;13.37;71.63
74403;BME280;62837;51.082;13.744;2022-10-14T05:54:15;100361.08;;;13.29;71.75
74403;BME280;62837;51.082;13.744;2022-10-14T05:56:46;100364.17;;;13.22;71.97
74403;BME280;62837;51.082;13.744;2022-10-14T05:59:17;100361.27;;;13.14;72.13
74403;BME280;62837;51.082;13.744;2022-10-14T06:01:48;100364.04;;;13.08;72.40
74403;BME280;62837;51.082;13.744;2022-10-14T06:04:20;100364.32;;;13.04;72.56
74403;BME280;62837;51.082;13.744;2022-10-14T06:06:51;100367.68;;;13.02;72.79
74403;BME280;62837;51.082;13.744;2022-10-14T06:09:22;100370.61;;;12.99;72.94
74403;BME280;62837;51.082;13.744;2022-10-14T06:11:54;100369.89;;;12.99;73.02
74403;BME280;62837;51.082;13.744;2022-10-14T06:14:25;100371.98;;;13.01;73.03
74403;BME280;62837;51.082;13.744;2022-10-14T06:16:56;100372.47;;;13.01;73.18
74403;BME280;62837;51.082;13.744;2022-10-14T06:19:26;100369.83;;;13.02;73.17
74403;BME280;62837;51.082;13.744;2022-10-14T06:21:57;100373.21;;;13.04;73.14
74403;BME280;62837;51.082;13.744;2022-10-14T06:24:28;100372.82;;;13.04;73.23
74403;BME280;62837;51.082;13.744;2022-10-14T06:26:59;100374.40;;;12.99;73.38
74403;BME280;62837;51.082;13.744;2022-10-14T06:29:29;100377.00;;;12.98;73.26
74403;BME280;62837;51.082;13.744;2022-10-14T06:32:08;100372.42;;;12.96;73.47
74403;BME280;62837;51.082;13.744;2022-10-14T06:34:39;100371.91;;;12.96;73.49
74403;BME280;62837;51.082;13.744;2022-10-14T06:37:09;100371.55;;;12.99;73.58
74403;BME280;62837;51.082;13.744;2022-10-14T06:39:40;100369.00;;;13.02;73.40
74403;BME280;62837;51.082;13.744;2022-10-14T06:42:13;100369.92;;;13.05;73.43
74403;BME280;62837;51.082;13.744;2022-10-14T06:44:44;100366.80;;;13.07;73.34
74403;BME280;62837;51.082;13.744;2022-10-14T06:47:14;100365.52;;;13.10;73.29
74403;BME280;62837;51.082;13.744;2022-10-14T06:49:45;100365.62;;;13.13;73.23
74403;BME280;62837;51.082;13.744;2022-10-14T06:52:16;100372.35;;;13.16;73.33
74403;BME280;62837;51.082;13.744;2022-10-14T06:54:47;100373.02;;;13.20;73.26
74403;BME280;62837;51.082;13.744;2022-10-14T06:57:18;100373.84;;;13.22;73.17
74403;BME280;62837;51.082;13.744;2022-10-14T06:59:49;100375.95;;;13.23;73.17
74403;BME280;62837;51.082;13.744;2022-10-14T07:02:19;100377.36;;;13.26;73.14
74403;BME280;62837;51.082;13.744;2022-10-14T07:04:50;100374.11;;;13.26;73.24
74403;BME280;62837;51.082;13.744;2022-10-14T07:07:21;100377.59;;;13.26;73.11
74403;BME280;62837;51.082;13.744;2022-10-14T07:09:52;100366.33;;;13.20;73.14
74403;BME280;62837;51.082;13.744;2022-10-14T07:12:22;100377.86;;;13.26;73.18
74403;BME280;62837;51.082;13.744;2022-10-14T07:14:54;100383.40;;;13.28;73.03
74403;BME280;62837;51.082;13.744;2022-10-14T07:17:25;100384.13;;;13.29;73.17
74403;BME280;62837;51.082;13.744;2022-10-14T07:19:56;100383.27;;;13.31;73.03
74403;BME280;62837;51.082;13.744;2022-10-14T07:22:27;100387.31;;;13.32;73.03
74403;BME280;62837;51.082;13.744;2022-10-14T07:24:58;100387.65;;;13.33;73.00
74403;BME280;62837;51.082;13.744;2022-10-14T07:27:28;100385.93;;;13.34;73.03
74403;BME280;62837;51.082;13.744;2022-10-14T07:29:59;100371.84;;;13.30;72.96
74403;BME280;62837;51.082;13.744;2022-10-14T07:32:30;100382.66;;;13.40;72.80
74403;BME280;62837;51.082;13.744;2022-10-14T07:35:06;100380.90;;;13.43;72.81
74403;BME280;62837;51.082;13.744;2022-10-14T07:37:37;100381.17;;;13.45;72.69
74403;BME280;62837;51.082;13.744;2022-10-14T07:40:10;100382.88;;;13.48;72.75
74403;BME280;62837;51.082;13.744;2022-10-14T07:42:41;100382.98;;;13.52;72.66
74403;BME280;62837;51.082;13.744;2022-10-14T07:45:12;100383.59;;;13.53;72.72
74403;BME280;62837;51.082;13.744;2022-10-14T07:47:48;100385.34;;;13.51;72.69
74403;BME280;62837;51.082;13.744;2022-10-14T07:50:20;100385.96;;;13.52;72.68
74403;BME280;62837;51.082;13.744;2022-10-14T07:52:51;100388.27;;;13.58;72.65
74403;BME280;62837;51.082;13.744;2022-10-14T07:55:27;100387.22;;;13.65;72.69
74403;BME280;62837;51.082;13.744;2022-10-14T07:57:58;100388.91;;;13.71;72.62
74403;BME280;62837;51.082;13.744;2022-10-14T08:00:28;100391.73;;;13.74;72.31
74403;BME280;62837;51.082;13.744;2022-10-14T08:02:59;100393.42;;;13.79;72.12
74403;BME280;62837;51.082;13.744;2022-10-14T08:05:30;100389.38;;;13.83;72.17
74403;BME280;62837;51.082;13.744;2022-10-14T08:08:08;100396.62;;;13.85;72.12
74403;BME280;62837;51.082;13.744;2022-10-14T08:10:39;100398.49;;;13.89;71.91
74403;BME280;62837;51.082;13.744;2022-10-14T08:13:10;100397.59;;;13.92;71.83
74403;BME280;62837;51.082;13.744;2022-10-14T08:15:41;100394.48;;;13.97;71.73
74403;BME280;62837;51.082;13.744;2022-10-14T08:18:12;100392.58;;;14.01;71.70
74403;BME280;62837;51.082;13.744;2022-10-14T08:20:42;100395.17;;;14.05;71.61
74403;BME280;62837;51.082;13.744;2022-10-14T08:23:13;100397.50;;;14.09;71.48
74403;BME280;62837;51.082;13.744;2022-10-14T08:25:49;100393.65;;;14.11;71.41
74403;BME280;62837;51.082;13.744;2022-10-14T08:28:20;100393.15;;;14.15;71.34
74403;BME280;62837;51.082;13.744;2022-10-14T08:30:50;100394.08;;;14.19;71.21
74403;BME280;62837;51.082;13.744;2022-10-14T08:33:21;100388.30;;;14.23;71.14
74403;BME280;62837;51.082;13.744;2022-10-14T08:35:52;100389.43;;;14.29;71.13
74403;BME280;62837;51.082;13.744;2022-10-14T08:38:23;100386.37;;;14.34;70.97
74403;BME280;62837;51.082;13.744;2022-10-14T08:41:01;100386.44;;;14.39;70.98
74403;BME280;62837;51.082;13.744;2022-10-14T08:43:38;100388.85;;;14.43;70.84
74403;BME280;62837;51.082;13.744;2022-10-14T08:46:17;100383.82;;;14.42;70.72
74403;BME280;62837;51.082;13.744;2022-10-14T08:48:47;100377.30;;;14.37;70.65
74403;BME280;62837;51.082;13.744;2022-10-14T08:51:21;100380.40;;;14.39;70.63
74403;BME280;62837;51.082;13.744;2022-10-14T08:53:57;100381.46;;;14.39;70.78
74403;BME280;62837;51.082;13.744;2022-10-14T08:56:32;100380.57;;;14.39;70.80
74403;BME280;62837;51.082;13.744;2022-10-14T08:59:04;100379.55;;;14.43;70.73
74403;BME280;62837;51.082;13.744;2022-10-14T09:01:38;100381.25;;;14.47;70.76
74403;BME280;62837;51.082;13.744;2022-10-14T09:04:15;100377.89;;;14.51;70.72
74403;BME280;62837;51.082;13.744;2022-10-14T09:06:47;100374.23;;;14.54;70.73
74403;BME280;62837;51.082;13.744;2022-10-14T09:09:24;100374.54;;;14.58;70.72
74403;BME280;62837;51.082;13.744;2022-10-14T09:11:57;100371.08;;;14.61;70.55
74403;BME280;62837;51.082;13.744;2022-10-14T09:14:33;100371.53;;;14.63;70.48
74403;BME280;62837;51.082;13.744;2022-10-14T09:17:09;100371.61;;;14.68;70.46
74403;BME280;62837;51.082;13.744;2022-10-14T09:19:47;100372.00;;;14.75;70.40
74403;BME280;62837;51.082;13.744;2022-10-14T09:22:20;100362.95;;;14.80;70.22
74403;BME280;62837;51.082;13.744;2022-10-14T09:24:51;100365.20;;;14.90;70.11
74403;BME280;62837;51.082;13.744;2022-10-14T09:27:27;100360.23;;;14.94;70.14
74403;BME280;62837;51.082;13.744;2022-10-14T09:30:00;100362.13;;;14.99;69.95
74403;BME280;62837;51.082;13.744;2022-10-14T09:32:34;100361.77;;;15.02;69.82
74403;BME280;62837;51.082;13.744;2022-10-14T09:35:14;100363.62;;;15.06;69.90
74403;BME280;62837;51.082;13.744;2022-10-14T09:37:46;100361.23;;;15.07;69.96
74403;BME280;62837;51.082;13.744;2022-10-14T09:40:19;100363.84;;;15.08;69.86
74403;BME280;62837;51.082;13.744;2022-10-14T09:42:55;100364.23;;;15.08;69.86
74403;BME280;62837;51.082;13.744;2022-10-14T09:45:28;100363.42;;;15.10;69.96
74403;BME280;62837;51.082;13.744;2022-10-14T09:47:59;100362.65;;;15.17;69.69
74403;BME280;62837;51.082;13.744;2022-10-14T09:50:36;100361.88;;;15.24;69.51
74403;BME280;62837;51.082;13.744;2022-10-14T09:53:24;100363.98;;;15.31;69.65
74403;BME280;62837;51.082;13.744;2022-10-14T09:55:58;100359.96;;;15.39;69.49
74403;BME280;62837;51.082;13.744;2022-10-14T09:58:37;100358.23;;;15.46;69.32
74403;BME280;62837;51.082;13.744;2022-10-14T10:01:14;100354.04;;;15.52;69.22
74403;BME280;62837;51.082;13.744;2022-10-14T10:03:46;100352.99;;;15.56;69.08
74403;BME280;62837;51.082;13.744;2022-10-14T10:06:19;100347.77;;;15.59;68.96
74403;BME280;62837;51.082;13.744;2022-10-14T10:08:58;100345.23;;;15.67;68.98
74403;BME280;62837;51.082;13.744;2022-10-14T10:11:31;100340.73;;;15.81;68.73
74403;BME280;62837;51.082;13.744;2022-10-14T10:14:16;100338.13;;;16.02;68.40
74403;BME280;62837;51.082;13.744;2022-10-14T10:16:48;100332.90;;;16.23;68.12
74403;BME280;62837;51.082;13.744;2022-10-14T10:19:30;100330.51;;;16.53;67.60
74403;BME280;62837;51.082;13.744;2022-10-14T10:25:20;100319.19;;;17.12;66.34
74403;BME280;62837;51.082;13.744;2022-10-14T10:27:57;100316.55;;;17.19;65.74
74403;BME280;62837;51.082;13.744;2022-10-14T10:30:31;100312.91;;;17.24;65.24
74403;BME280;62837;51.082;13.744;2022-10-14T10:33:19;100311.95;;;17.26;65.07
74403;BME280;62837;51.082;13.744;2022-10-14T10:36:02;100313.33;;;17.23;65.02
74403;BME280;62837;51.082;13.744;2022-10-14T10:38:41;100312.73;;;17.16;64.71
74403;BME280;62837;51.082;13.744;2022-10-14T10:41:24;100312.60;;;17.08;64.70
74403;BME280;62837;51.082;13.744;2022-10-14T10:44:06;100311.98;;;17.01;64.76
74403;BME280;62837;51.082;13.744;2022-10-14T10:46:55;100310.55;;;16.95;64.82
74403;BME280;62837;51.082;13.744;2022-10-14T10:49:47;100308.41;;;16.90;64.80
74403;BME280;62837;51.082;13.744;2022-10-14T10:52:29;100307.23;;;16.84;64.86
74403;BME280;62837;51.082;13.744;2022-10-14T10:55:12;100306.41;;;16.75;65.00
74403;BME280;62837;51.082;13.744;2022-10-14T10:57:55;100299.04;;;16.68;65.08
74403;BME280;62837;51.082;13.744;2022-10-14T11:00:38;100297.38;;;16.60;65.06
74403;BME280;62837;51.082;13.744;2022-10-14T11:03:27;100300.78;;;16.53;65.30
74403;BME280;62837;51.082;13.744;2022-10-14T11:06:05;100297.11;;;16.47;65.41
74403;BME280;62837;51.082;13.744;2022-10-14T11:08:59;100294.20;;;16.44;65.41
74403;BME280;62837;51.082;13.744;2022-10-14T11:12:11;100290.63;;;16.46;65.58
74403;BME280;62837;51.082;13.744;2022-10-14T11:14:57;100291.95;;;16.46;65.69
74403;BME280;62837;51.082;13.744;2022-10-14T11:17:36;100288.23;;;16.48;66.12
74403;BME280;62837;51.082;13.744;2022-10-14T11:20:19;100290.30;;;16.49;66.14
74403;BME280;62837;51.082;13.744;2022-10-14T11:23:04;100284.38;;;16.52;66.32
74403;BME280;62837;51.082;13.744;2022-10-14T11:25:44;100283.55;;;16.54;66.04
74403;BME280;62837;51.082;13.744;2022-10-14T11:28:23;100282.15;;;16.55;65.98
74403;BME280;62837;51.082;13.744;2022-10-14T11:31:02;100282.20;;;16.53;65.90
74403;BME280;62837;51.082;13.744;2022-10-14T11:33:50;100278.71;;;16.48;65.79
74403;BME280;62837;51.082;13.744;2022-10-14T11:36:33;100278.11;;;16.41;65.79
74403;BME280;62837;51.082;13.744;2022-10-14T11:39:19;100276.17;;;16.33;66.26
74403;BME280;62837;51.082;13.744;2022-10-14T11:42:01;100270.31;;;16.30;66.35
74403;BME280;62837;51.082;13.744;2022-10-14T11:44:36;100268.86;;;16.27;66.57
74403;BME280;62837;51.082;13.744;2022-10-14T11:47:11;100265.94;;;16.26;66.95
74403;BME280;62837;51.082;13.744;2022-10-14T11:49:46;100264.55;;;16.27;67.09
74403;BME280;62837;51.082;13.744;2022-10-14T11:52:23;100260.00;;;16.29;66.95
74403;BME280;62837;51.082;13.744;2022-10-14T11:54:59;100259.38;;;16.31;66.36
74403;BME280;62837;51.082;13.744;2022-10-14T11:57:34;100260.42;;;16.32;65.83
74403;BME280;62837;51.082;13.744;2022-10-14T12:03:09;100247.56;;;16.38;65.45
74403;BME280;62837;51.082;13.744;2022-10-14T12:05:46;100246.45;;;16.43;65.47
74403;BME280;62837;51.082;13.744;2022-10-14T12:08:23;100243.71;;;16.46;65.64
74403;BME280;62837;51.082;13.744;2022-10-14T12:11:06;100237.46;;;16.49;65.32
74403;BME280;62837;51.082;13.744;2022-10-14T12:13:41;100238.30;;;16.51;65.21
74403;BME280;62837;51.082;13.744;2022-10-14T12:16:15;100236.64;;;16.52;65.09
74403;BME280;62837;51.082;13.744;2022-10-14T12:18:49;100235.61;;;16.53;65.09
74403;BME280;62837;51.082;13.744;2022-10-14T12:21:30;100229.70;;;16.54;64.94
74403;BME280;62837;51.082;13.744;2022-10-14T12:24:05;100228.92;;;16.54;64.72
74403;BME280;62837;51.082;13.744;2022-10-14T12:26:51;100228.69;;;16.53;64.56
74403;BME280;62837;51.082;13.744;2022-10-14T12:29:24;100229.66;;;16.51;64.79
74403;BME280;62837;51.082;13.744;2022-10-14T12:32:19;100230.65;;;16.48;64.87
74403;BME280;62837;51.082;13.744;2022-10-14T12:34:52;100229.62;;;16.43;64.74
74403;BME280;62837;51.082;13.744;2022-10-14T12:37:49;100223.30;;;16.35;65.03
74403;BME280;62837;51.082;13.744;2022-10-14T12:40:28;100221.23;;;16.32;65.04
74403;BME280;62837;51.082;13.744;2022-10-14T12:43:13;100219.58;;;16.32;65.07
74403;BME280;62837;51.082;13.744;2022-10-14T12:45:53;100219.79;;;16.35;65.10
74403;BME280;62837;51.082;13.744;2022-10-14T12:48:31;100220.05;;;16.41;65.10
74403;BME280;62837;51.082;13.744;2022-10-14T12:51:12;100212.23;;;16.46;64.90
74403;BME280;62837;51.082;13.744;2022-10-14T12:53:51;100212.49;;;16.51;64.73
74403;BME280;62837;51.082;13.744;2022-10-14T12:56:36;100214.15;;;16.54;64.31
74403;BME280;62837;51.082;13.744;2022-10-14T12:59:16;100213.30;;;16.57;64.24
74403;BME280;62837;51.082;13.744;2022-10-14T13:01:57;100209.69;;;16.58;64.27
74403;BME280;62837;51.082;13.744;2022-10-14T13:04:30;100209.60;;;16.59;64.37
74403;BME280;62837;51.082;13.744;2022-10-14T13:07:28;100207.81;;;16.60;64.24
74403;BME280;62837;51.082;13.744;2022-10-14T13:12:59;100207.04;;;16.60;64.74
74403;BME280;62837;51.082;13.744;2022-10-14T13:15:46;100205.77;;;16.59;64.80
74403;BME280;62837;51.082;13.744;2022-10-14T13:18:41;100199.64;;;16.56;64.99
74403;BME280;62837;51.082;13.744;2022-10-14T13:21:50;100198.89;;;16.52;65.17
74403;BME280;62837;51.082;13.744;2022-10-14T13:24:26;100197.84;;;16.51;65.17
74403;BME280;62837;51.082;13.744;2022-10-14T13:27:10;100196.67;;;16.51;65.24
74403;BME280;62837;51.082;13.744;2022-10-14T13:29:56;100193.55;;;16.53;65.13
74403;BME280;62837;51.082;13.744;2022-10-14T13:32:36;100188.91;;;16.54;65.03